Time;durP1;ratioP1;P1;durP2;ratioP2;P2;SDS_P1;SDS_P2;PMS_P1;PMS_P2;Temp;Humidity;BMP_temperature;BMP_pressure;BME280_temperature;BME280_humidity;BME280_pressure;Samples;Min_cycle;Max_cycle;Signal;HPM_P1;HPM_P2
2021/11/26 00:00:21;;;;;;;;;;;;;;;;;;5068464;28;19935;-66
2021/11/26 00:02:51;;;;;;;;;;;;;;;;;;5068967;28;20361;-66
2021/11/26 00:05:19;;;;;;;;;;;;;;;;;;5064300;28;20004;-67
2021/11/26 00:07:49;;;;;;;;;;;;;;;;;;5064525;28;19924;-67
2021/11/26 00:10:19;;;;;;;;;;;;;;;;;;5064416;28;19928;-68
2021/11/26 00:12:54;;;;;;;;;;;;;;;;;;5065430;28;19928;-67
2021/11/26 00:18:04;;;;;;;;;;;;;;;;;;5068766;28;19925;-68
2021/11/26 00:20:31;;;;;;;;;;;;;;;;;;5067387;28;19925;-67
2021/11/26 00:22:58;;;;;;;;;;;;;;;;;;5067501;28;19924;-67
2021/11/26 00:25:25;;;;;;;;;;;;;;;;;;5065675;28;20317;-67
2021/11/26 00:27:52;;;;;;;;;;;;;;;;;;5065655;28;19997;-67
2021/11/26 00:30:20;;;;;;;;;;;;;;;;;;5075814;28;19924;-67
2021/11/26 00:32:47;;;;;;;;;;;;;;;;;;5067743;28;19950;-66
2021/11/26 00:35:14;;;;;;;;;;;;;;;;;;5064746;28;19924;-68
2021/11/26 00:37:41;;;;;;;;;;;;;;;;;;5068619;28;19925;-67
2021/11/26 00:40:08;;;;;;;;;;;;;;;;;;5063060;28;20407;-67
2021/11/26 00:42:35;;;;;;;;;;;;;;;;;;5068082;28;19931;-68
2021/11/26 00:45:02;;;;;;;;;;;;;;;;;;5077800;28;20311;-68
2021/11/26 00:47:29;;;;;;;;;;;;;;;;;;5064761;28;19959;-67
2021/11/26 00:49:57;;;;;;;;;;;;;;;;;;5070193;28;19935;-68
2021/11/26 00:52:24;;;;;;;;;;;;;;;;;;5064969;28;19928;-68
2021/11/26 00:54:51;;;;;;;;;;;;;;;;;;5068390;28;19924;-67
2021/11/26 00:57:18;;;;;;;;;;;;;;;;;;5066489;28;20429;-68
2021/11/26 00:59:45;;;;;;;;;;;;;;;;;;5068646;28;19924;-67
2021/11/26 01:02:14;;;;;;;;;;;;;;;;;;5065937;28;20393;-67
2021/11/26 01:04:41;;;;;;;;;;;;;;;;;;5065777;28;19924;-68
2021/11/26 01:07:09;;;;;;;;;;;;;;;;;;5061893;28;19929;-67
2021/11/26 01:09:36;;;;;;;;;;;;;;;;;;5067146;28;20347;-67
2021/11/26 01:12:03;;;;;;;;;;;;;;;;;;5069227;28;19935;-67
2021/11/26 01:14:30;;;;;;;;;;;;;;;;;;5068988;28;20003;-68
2021/11/26 01:16:58;;;;;;;;;;;;;;;;;;5072584;28;19924;-67
2021/11/26 01:19:25;;;;;;;;;;;;;;;;;;5071351;28;20200;-68
2021/11/26 01:21:52;;;;;;;;;;;;;;;;;;5073029;28;19924;-68
2021/11/26 01:24:19;;;;;;;;;;;;;;;;;;5075005;28;19924;-67
2021/11/26 01:26:46;;;;;;;;;;;;;;;;;;5069662;28;20307;-67
2021/11/26 01:29:13;;;;;;;;;;;;;;;;;;5070389;28;20290;-67
2021/11/26 01:31:41;;;;;;;;;;;;;;;;;;5067871;28;19934;-68
2021/11/26 01:34:09;;;;;;;;;;;;;;;;;;5074461;28;20479;-67
2021/11/26 01:36:36;;;;;;;;;;;;;;;;;;5068502;28;20548;-67
2021/11/26 01:39:03;;;;;;;;;;;;;;;;;;5069915;28;19982;-67
2021/11/26 01:41:30;;;;;;;;;;;;;;;;;;5063308;28;20452;-67
2021/11/26 01:43:58;;;;;;;;;;;;;;;;;;5074299;28;19924;-67
2021/11/26 01:46:25;;;;;;;;;;;;;;;;;;5065965;28;20543;-67
2021/11/26 01:48:52;;;;;;;;;;;;;;;;;;5068276;28;19925;-67
2021/11/26 01:51:19;;;;;;;;;;;;;;;;;;5065059;28;20298;-69
2021/11/26 01:53:46;;;;;;;;;;;;;;;;;;5062969;28;20143;-67
2021/11/26 01:56:13;;;;;;;;;;;;;;;;;;5067394;28;19924;-67
2021/11/26 01:58:40;;;;;;;;;;;;;;;;;;5069369;28;20361;-67
2021/11/26 02:01:09;;;;;;;;;;;;;;;;;;5073704;28;19924;-68
2021/11/26 02:03:37;;;;;;;;;;;;;;;;;;5065664;28;19944;-68
2021/11/26 02:06:04;;;;;;;;;;;;;;;;;;5067604;28;19924;-67
2021/11/26 02:08:31;;;;;;;;;;;;;;;;;;5061879;28;19930;-68
2021/11/26 02:10:58;;;;;;;;;;;;;;;;;;5067297;28;19985;-68
2021/11/26 02:13:26;;;;;;;;;;;;;;;;;;5062417;28;20312;-68
2021/11/26 02:15:54;;;;;;;;;;;;;;;;;;5052207;28;20543;-67
2021/11/26 02:18:21;;;;;;;;;;;;;;;;;;5068383;28;19925;-67
2021/11/26 02:20:48;;;;;;;;;;;;;;;;;;5071543;28;19932;-67
2021/11/26 02:23:15;;;;;;;;;;;;;;;;;;5067466;28;19946;-67
2021/11/26 02:25:43;;;;;;;;;;;;;;;;;;5070038;28;20327;-67
2021/11/26 02:28:10;;;;;;;;;;;;;;;;;;5066262;28;19981;-67
2021/11/26 02:30:37;;;;;;;;;;;;;;;;;;5070937;28;19928;-67
2021/11/26 02:33:05;;;;;;;;;;;;;;;;;;5069643;28;19936;-68
2021/11/26 02:35:32;;;;;;;;;;;;;;;;;;5070119;28;20357;-67
2021/11/26 02:37:59;;;;;;;;;;;;;;;;;;5069810;28;19932;-68
2021/11/26 02:40:26;;;;;;;;;;;;;;;;;;5069039;28;19924;-67
2021/11/26 02:42:54;;;;;;;;;;;;;;;;;;5070534;28;20040;-68
2021/11/26 02:45:21;;;;;;;;;;;;;;;;;;5051679;28;19932;-68
2021/11/26 02:47:48;;;;;;;;;;;;;;;;;;5067432;28;19924;-67
2021/11/26 02:50:15;;;;;;;;;;;;;;;;;;5083160;28;20356;-67
2021/11/26 02:52:43;;;;;;;;;;;;;;;;;;5066703;28;19942;-67
2021/11/26 02:55:10;;;;;;;;;;;;;;;;;;5068796;28;20436;-67
2021/11/26 02:57:37;;;;;;;;;;;;;;;;;;5067738;28;19929;-68
2021/11/26 03:00:04;;;;;;;;;;;;;;;;;;5072044;28;20312;-68
2021/11/26 03:02:31;;;;;;;;;;;;;;;;;;5067221;28;19935;-67
2021/11/26 03:04:58;;;;;;;;;;;;;;;;;;5069465;28;19925;-67
2021/11/26 03:07:25;;;;;;;;;;;;;;;;;;5063035;28;19933;-67
2021/11/26 03:09:52;;;;;;;;;;;;;;;;;;5071719;28;19924;-70
2021/11/26 03:12:20;;;;;;;;;;;;;;;;;;5069883;28;19935;-67
2021/11/26 03:14:47;;;;;;;;;;;;;;;;;;5069785;28;19932;-67
2021/11/26 03:17:15;;;;;;;;;;;;;;;;;;5065448;28;19985;-67
2021/11/26 03:19:42;;;;;;;;;;;;;;;;;;5070790;28;19931;-66
2021/11/26 03:22:11;;;;;;;;;;;;;;;;;;5069768;28;19924;-66
2021/11/26 03:24:38;;;;;;;;;;;;;;;;;;5077726;28;20274;-67
2021/11/26 03:27:05;;;;;;;;;;;;;;;;;;5068523;28;19924;-67
2021/11/26 03:29:32;;;;;;;;;;;;;;;;;;5070485;28;20479;-67
2021/11/26 03:31:59;;;;;;;;;;;;;;;;;;5071445;28;19930;-68
2021/11/26 03:34:26;;;;;;;;;;;;;;;;;;5070319;28;19939;-67
2021/11/26 03:36:54;;;;;;;;;;;;;;;;;;5069100;28;19928;-67
2021/11/26 03:39:21;;;;;;;;;;;;;;;;;;5065969;28;19939;-68
2021/11/26 03:41:48;;;;;;;;;;;;;;;;;;5070339;28;19972;-69
2021/11/26 03:44:15;;;;;;;;;;;;;;;;;;5078802;28;19934;-68
2021/11/26 03:46:42;;;;;;;;;;;;;;;;;;5067800;28;19939;-67
2021/11/26 03:49:09;;;;;;;;;;;;;;;;;;5067720;28;19933;-67
2021/11/26 03:51:36;;;;;;;;;;;;;;;;;;5067853;28;19950;-67
2021/11/26 03:54:04;;;;;;;;;;;;;;;;;;5068015;28;19939;-67
2021/11/26 03:56:31;;;;;;;;;;;;;;;;;;5068566;28;20020;-67
2021/11/26 03:58:58;;;;;;;;;;;;;;;;;;5070325;28;19935;-67
2021/11/26 04:01:25;;;;;;;;;;;;;;;;;;5067332;28;19929;-67
2021/11/26 04:03:53;;;;;;;;;;;;;;;;;;5068197;28;19935;-67
2021/11/26 04:06:20;;;;;;;;;;;;;;;;;;5073580;28;19969;-67
2021/11/26 04:08:47;;;;;;;;;;;;;;;;;;5066278;28;19928;-68
2021/11/26 04:11:14;;;;;;;;;;;;;;;;;;5066372;28;19934;-68
2021/11/26 04:13:41;;;;;;;;;;;;;;;;;;5062273;28;20463;-67
2021/11/26 04:16:13;;;;;;;;;;;;;;;;;;5068177;28;19924;-67
2021/11/26 04:18:40;;;;;;;;;;;;;;;;;;5068047;28;20353;-67
2021/11/26 04:21:07;;;;;;;;;;;;;;;;;;5067085;28;19928;-67
2021/11/26 04:23:34;;;;;;;;;;;;;;;;;;5066606;28;19924;-67
2021/11/26 04:26:01;;;;;;;;;;;;;;;;;;5068162;28;19924;-68
2021/11/26 04:28:29;;;;;;;;;;;;;;;;;;5068544;28;19924;-67
2021/11/26 04:30:58;;;;;;;;;;;;;;;;;;5072993;28;19925;-68
2021/11/26 04:33:25;;;;;;;;;;;;;;;;;;5066613;28;20284;-67
2021/11/26 04:35:52;;;;;;;;;;;;;;;;;;5067921;28;20223;-68
2021/11/26 04:38:19;;;;;;;;;;;;;;;;;;5068318;28;19936;-68
2021/11/26 04:40:47;;;;;;;;;;;;;;;;;;5068335;28;20272;-67
2021/11/26 04:43:14;;;;;;;;;;;;;;;;;;5059003;28;19924;-67
2021/11/26 04:45:41;;;;;;;;;;;;;;;;;;5076351;28;19931;-68
2021/11/26 04:48:08;;;;;;;;;;;;;;;;;;5068958;28;19928;-67
2021/11/26 04:50:35;;;;;;;;;;;;;;;;;;5069101;28;19924;-67
2021/11/26 04:53:02;;;;;;;;;;;;;;;;;;5069017;28;19929;-67
2021/11/26 04:55:29;;;;;;;;;;;;;;;;;;5064270;28;20399;-67
2021/11/26 04:57:56;;;;;;;;;;;;;;;;;;5067051;28;19936;-67
2021/11/26 05:00:24;;;;;;;;;;;;;;;;;;5079171;28;19972;-67
2021/11/26 05:02:51;;;;;;;;;;;;;;;;;;5067645;28;19924;-66
2021/11/26 05:05:18;;;;;;;;;;;;;;;;;;5066882;28;20375;-67
2021/11/26 05:07:45;;;;;;;;;;;;;;;;;;5056658;28;19936;-67
2021/11/26 05:10:13;;;;;;;;;;;;;;;;;;5067699;28;19939;-67
2021/11/26 05:12:53;;;;;;;;;;;;;;;;;;5067725;28;20251;-68
2021/11/26 05:15:26;;;;;;;;;;;;;;;;;;5058676;28;20428;-67
2021/11/26 05:17:54;;;;;;;;;;;;;;;;;;5061752;28;19924;-67
2021/11/26 05:20:21;;;;;;;;;;;;;;;;;;5067282;28;19992;-67
2021/11/26 05:22:48;;;;;;;;;;;;;;;;;;5067350;28;19955;-68
2021/11/26 05:25:15;;;;;;;;;;;;;;;;;;5067469;28;19934;-68
2021/11/26 05:27:42;;;;;;;;;;;;;;;;;;5077034;28;19925;-68
2021/11/26 05:30:09;;;;;;;;;;;;;;;;;;5064975;28;19934;-67
2021/11/26 05:32:37;;;;;;;;;;;;;;;;;;5065676;28;20346;-67
2021/11/26 05:35:05;;;;;;;;;;;;;;;;;;5069112;28;19930;-68
2021/11/26 05:37:32;;;;;;;;;;;;;;;;;;5066353;28;19928;-67
2021/11/26 05:40:01;;;;;;;;;;;;;;;;;;5080900;28;20333;-69
2021/11/26 05:42:28;;;;;;;;;;;;;;;;;;5062890;28;19928;-68
2021/11/26 05:44:55;;;;;;;;;;;;;;;;;;5067264;28;19932;-66
2021/11/26 05:47:22;;;;;;;;;;;;;;;;;;5062148;28;19946;-67
2021/11/26 05:49:49;;;;;;;;;;;;;;;;;;5067151;28;19928;-67
2021/11/26 05:52:17;;;;;;;;;;;;;;;;;;5065721;28;19975;-66
2021/11/26 05:54:44;;;;;;;;;;;;;;;;;;5063935;28;19924;-67
2021/11/26 05:57:11;;;;;;;;;;;;;;;;;;5063509;28;19947;-66
2021/11/26 05:59:38;;;;;;;;;;;;;;;;;;5067547;28;20363;-67
2021/11/26 06:02:06;;;;;;;;;;;;;;;;;;5076203;28;19924;-67
2021/11/26 06:04:33;;;;;;;;;;;;;;;;;;5068028;28;19928;-67
2021/11/26 06:07:00;;;;;;;;;;;;;;;;;;5062045;28;19989;-68
2021/11/26 06:09:27;;;;;;;;;;;;;;;;;;5063938;28;19954;-68
2021/11/26 06:11:54;;;;;;;;;;;;;;;;;;5066138;28;19931;-67
2021/11/26 06:14:21;;;;;;;;;;;;;;;;;;5063941;28;19924;-67
2021/11/26 06:16:48;;;;;;;;;;;;;;;;;;5074012;28;19957;-66
2021/11/26 06:19:15;;;;;;;;;;;;;;;;;;5068237;28;19925;-71
2021/11/26 06:21:43;;;;;;;;;;;;;;;;;;5065210;28;19936;-67
2021/11/26 06:24:10;;;;;;;;;;;;;;;;;;5066832;28;19924;-65
2021/11/26 06:26:39;;;;;;;;;;;;;;;;;;5065480;28;19935;-65
2021/11/26 06:29:06;;;;;;;;;;;;;;;;;;5066045;28;19924;-65
2021/11/26 06:31:33;;;;;;;;;;;;;;;;;;5061327;28;19928;-64
2021/11/26 06:34:01;;;;;;;;;;;;;;;;;;5067593;28;19924;-66
2021/11/26 06:36:28;;;;;;;;;;;;;;;;;;5080502;28;19959;-66
2021/11/26 06:38:55;;;;;;;;;;;;;;;;;;5071881;28;19925;-66
2021/11/26 06:41:22;;;;;;;;;;;;;;;;;;5061283;28;19930;-65
2021/11/26 06:43:49;;;;;;;;;;;;;;;;;;5067229;28;19931;-66
2021/11/26 06:46:16;;;;;;;;;;;;;;;;;;5080692;28;19924;-65
2021/11/26 06:48:43;;;;;;;;;;;;;;;;;;5067991;28;19924;-65
2021/11/26 06:51:10;;;;;;;;;;;;;;;;;;5066775;28;19925;-65
2021/11/26 06:53:38;;;;;;;;;;;;;;;;;;5064218;28;19925;-65
2021/11/26 06:56:05;;;;;;;;;;;;;;;;;;5078962;28;19932;-65
2021/11/26 06:58:32;;;;;;;;;;;;;;;;;;5061559;28;20335;-65
2021/11/26 07:01:04;;;;;;;;;;;;;;;;;;5077394;28;19924;-64
2021/11/26 07:03:34;;;;;;;;;;;;;;;;;;5065634;28;20407;-68
2021/11/26 07:06:02;;;;;;;;;;;;;;;;;;5079853;28;19930;-65
2021/11/26 07:08:35;;;;;;;;;;;;;;;;;;5063749;28;19934;-67
2021/11/26 07:11:02;;;;;;;;;;;;;;;;;;5078506;28;20003;-65
2021/11/26 07:13:30;;;;;;;;;;;;;;;;;;5078996;28;19936;-68
2021/11/26 07:16:02;;;;;;;;;;;;;;;;;;5075590;28;19919;-63
2021/11/26 07:18:31;;;;;;;;;;;;;;;;;;5072673;28;19932;-64
2021/11/26 07:21:05;;;;;;;;;;;;;;;;;;5082895;28;19988;-66
2021/11/26 07:23:35;;;;;;;;;;;;;;;;;;5054636;28;19932;-67
2021/11/26 07:26:03;;;;;;;;;;;;;;;;;;5090004;28;19921;-65
2021/11/26 07:28:30;;;;;;;;;;;;;;;;;;5076103;28;20349;-66
2021/11/26 07:30:58;;;;;;;;;;;;;;;;;;5073317;28;19932;-66
2021/11/26 07:33:29;;;;;;;;;;;;;;;;;;5066573;28;19924;-65
2021/11/26 07:36:02;;;;;;;;;;;;;;;;;;5062941;28;19936;-68
2021/11/26 07:38:33;;;;;;;;;;;;;;;;;;5075235;28;19923;-69
2021/11/26 07:41:01;;;;;;;;;;;;;;;;;;5072924;28;19925;-68
2021/11/26 07:43:31;;;;;;;;;;;;;;;;;;5084726;28;20449;-68
2021/11/26 07:45:58;;;;;;;;;;;;;;;;;;5081211;28;19929;-68
2021/11/26 07:48:26;;;;;;;;;;;;;;;;;;5070935;28;19960;-65
2021/11/26 07:50:55;;;;;;;;;;;;;;;;;;5075524;28;19939;-65
2021/11/26 07:53:24;;;;;;;;;;;;;;;;;;5067104;28;19925;-65
2021/11/26 07:55:52;;;;;;;;;;;;;;;;;;5068592;28;20391;-66
2021/11/26 07:58:25;;;;;;;;;;;;;;;;;;5069418;28;19928;-68
2021/11/26 08:00:53;;;;;;;;;;;;;;;;;;5075935;28;20559;-67
2021/11/26 08:03:24;;;;;;;;;;;;;;;;;;5063621;28;19925;-72
2021/11/26 08:06:03;;;;;;;;;;;;;;;;;;5069537;28;19924;-69
2021/11/26 08:08:35;;;;;;;;;;;;;;;;;;5066826;28;20231;-70
2021/11/26 08:11:08;;;;;;;;;;;;;;;;;;5068392;28;19932;-70
2021/11/26 08:13:35;;;;;;;;;;;;;;;;;;5065303;28;19946;-70
2021/11/26 08:16:08;;;;;;;;;;;;;;;;;;5065321;28;19932;-73
2021/11/26 08:18:38;;;;;;;;;;;;;;;;;;5066629;28;19933;-73
2021/11/26 08:21:08;;;;;;;;;;;;;;;;;;5064324;28;19956;-69
2021/11/26 08:23:37;;;;;;;;;;;;;;;;;;5065565;28;19924;-66
2021/11/26 08:26:05;;;;;;;;;;;;;;;;;;5068958;28;19929;-66
2021/11/26 08:28:35;;;;;;;;;;;;;;;;;;5067581;28;19982;-67
2021/11/26 08:31:02;;;;;;;;;;;;;;;;;;5082342;28;19935;-69
2021/11/26 08:33:33;;;;;;;;;;;;;;;;;;5064234;28;19925;-69
2021/11/26 08:36:03;;;;;;;;;;;;;;;;;;5067787;28;19981;-69
2021/11/26 08:38:33;;;;;;;;;;;;;;;;;;5065740;28;19925;-68
2021/11/26 08:41:04;;;;;;;;;;;;;;;;;;5067666;28;20545;-70
2021/11/26 08:43:34;;;;;;;;;;;;;;;;;;5064825;28;19928;-69
2021/11/26 08:46:07;;;;;;;;;;;;;;;;;;5066962;28;19924;-70
2021/11/26 08:48:38;;;;;;;;;;;;;;;;;;5068848;28;19928;-68
2021/11/26 08:51:09;;;;;;;;;;;;;;;;;;5066752;28;19932;-63
2021/11/26 08:53:47;;;;;;;;;;;;;;;;;;5066418;28;19935;-65
2021/11/26 08:56:15;;;;;;;;;;;;;;;;;;5071449;28;19981;-65
2021/11/26 08:58:46;;;;;;;;;;;;;;;;;;5070439;28;20361;-65
2021/11/26 09:01:19;;;;;;;;;;;;;;;;;;5063543;28;19928;-66
2021/11/26 09:03:47;;;;;;;;;;;;;;;;;;5067482;28;19931;-66
2021/11/26 09:06:16;;;;;;;;;;;;;;;;;;5077165;28;19923;-65
2021/11/26 09:08:48;;;;;;;;;;;;;;;;;;5063784;28;19925;-66
2021/11/26 09:11:19;;;;;;;;;;;;;;;;;;5066187;28;19946;-65
2021/11/26 09:13:51;;;;;;;;;;;;;;;;;;5064476;28;19931;-65
2021/11/26 09:16:21;;;;;;;;;;;;;;;;;;5054692;28;19935;-67
2021/11/26 09:18:49;;;;;;;;;;;;;;;;;;5068166;28;19985;-67
2021/11/26 09:21:21;;;;;;;;;;;;;;;;;;5055292;28;19925;-66
2021/11/26 09:23:53;;;;;;;;;;;;;;;;;;5044825;28;19925;-65
2021/11/26 09:26:22;;;;;;;;;;;;;;;;;;5047054;28;19931;-65
2021/11/26 09:28:51;;;;;;;;;;;;;;;;;;5030413;28;19925;-66
2021/11/26 09:31:18;;;;;;;;;;;;;;;;;;5043118;28;19995;-65
2021/11/26 09:33:49;;;;;;;;;;;;;;;;;;5046818;28;19935;-64
2021/11/26 09:36:16;;;;;;;;;;;;;;;;;;5049212;28;19924;-63
2021/11/26 09:38:46;;;;;;;;;;;;;;;;;;5048175;28;19925;-64
2021/11/26 09:41:15;;;;;;;;;;;;;;;;;;5046812;28;19924;-66
2021/11/26 09:44:01;;;;;;;;;;;;;;;;;;5044662;28;19929;-65
2021/11/26 09:46:33;;;;;;;;;;;;;;;;;;5048616;28;20331;-66
2021/11/26 09:49:02;;;;;;;;;;;;;;;;;;5047971;28;20319;-65
2021/11/26 09:51:31;;;;;;;;;;;;;;;;;;5045328;28;20413;-64
2021/11/26 09:53:58;;;;;;;;;;;;;;;;;;5056657;28;19929;-64
2021/11/26 09:56:31;;;;;;;;;;;;;;;;;;5049416;28;20006;-68
2021/11/26 09:58:59;;;;;;;;;;;;;;;;;;5059099;28;19929;-68
2021/11/26 10:01:28;;;;;;;;;;;;;;;;;;5046445;28;19985;-63
2021/11/26 10:03:58;;;;;;;;;;;;;;;;;;5048329;28;20376;-64
2021/11/26 10:06:52;;;;;;;;;;;;;;;;;;5049443;28;20477;-66
2021/11/26 10:09:24;;;;;;;;;;;;;;;;;;5054873;28;19929;-65
2021/11/26 10:11:53;;;;;;;;;;;;;;;;;;5049245;28;19982;-66
2021/11/26 10:14:24;;;;;;;;;;;;;;;;;;5050160;28;19924;-67
2021/11/26 10:16:57;;;;;;;;;;;;;;;;;;5044035;28;19929;-67
2021/11/26 10:19:25;;;;;;;;;;;;;;;;;;5050806;28;19939;-68
2021/11/26 10:22:09;;;;;;;;;;;;;;;;;;5058163;28;19960;-67
2021/11/26 10:24:37;;;;;;;;;;;;;;;;;;5071877;28;19924;-67
2021/11/26 10:27:06;;;;;;;;;;;;;;;;;;5067645;28;20050;-66
2021/11/26 10:29:35;;;;;;;;;;;;;;;;;;5069143;28;19924;-65
2021/11/26 10:32:04;;;;;;;;;;;;;;;;;;5062555;28;19929;-65
2021/11/26 10:34:32;;;;;;;;;;;;;;;;;;5068477;28;19938;-65
2021/11/26 10:37:02;;;;;;;;;;;;;;;;;;5072151;28;19924;-67
2021/11/26 10:39:29;;;;;;;;;;;;;;;;;;5067710;28;20002;-67
2021/11/26 10:41:56;;;;;;;;;;;;;;;;;;5071253;28;19930;-65
2021/11/26 10:44:46;;;;;;;;;;;;;;;;;;5070746;28;19925;-65
2021/11/26 10:50:03;;;;;;;;;;;;;;;;;;5069287;28;20263;-66
2021/11/26 10:52:54;;;;;;;;;;;;;;;;;;5046373;28;19950;-67
2021/11/26 11:00:52;;;;;;;;;;;;;;;;;;5069459;28;19973;-65
2021/11/26 11:03:23;;;;;;;;;;;;;;;;;;5059914;28;19997;-66
2021/11/26 11:05:54;;;;;;;;;;;;;;;;;;5069217;28;19936;-65
2021/11/26 11:08:25;;;;;;;;;;;;;;;;;;5061243;28;19939;-64
2021/11/26 11:10:57;;;;;;;;;;;;;;;;;;5072328;28;19935;-65
2021/11/26 11:13:27;;;;;;;;;;;;;;;;;;5067886;28;19932;-65
2021/11/26 11:15:55;;;;;;;;;;;;;;;;;;5072593;28;20516;-65
2021/11/26 11:18:26;;;;;;;;;;;;;;;;;;5063574;28;20271;-65
2021/11/26 11:20:55;;;;;;;;;;;;;;;;;;5067634;28;19928;-65
2021/11/26 11:23:22;;;;;;;;;;;;;;;;;;5069885;28;19932;-66
2021/11/26 11:25:52;;;;;;;;;;;;;;;;;;5070975;28;19932;-65
2021/11/26 11:28:22;;;;;;;;;;;;;;;;;;5070583;28;19924;-65
2021/11/26 11:30:53;;;;;;;;;;;;;;;;;;5055389;28;19952;-65
2021/11/26 11:33:23;;;;;;;;;;;;;;;;;;5061685;28;19924;-65
2021/11/26 11:35:52;;;;;;;;;;;;;;;;;;5071260;28;19980;-66
2021/11/26 11:38:24;;;;;;;;;;;;;;;;;;5070622;28;19925;-67
2021/11/26 11:40:53;;;;;;;;;;;;;;;;;;5072322;28;19939;-65
2021/11/26 11:43:24;;;;;;;;;;;;;;;;;;5064413;28;19999;-65
2021/11/26 11:45:51;;;;;;;;;;;;;;;;;;5083082;28;19932;-64
2021/11/26 11:48:20;;;;;;;;;;;;;;;;;;5083262;28;19985;-64
2021/11/26 11:50:50;;;;;;;;;;;;;;;;;;5083501;28;19928;-63
2021/11/26 11:53:19;;;;;;;;;;;;;;;;;;5060144;28;20342;-63
2021/11/26 11:55:50;;;;;;;;;;;;;;;;;;5080351;28;19924;-66
2021/11/26 11:58:21;;;;;;;;;;;;;;;;;;5067112;28;19932;-66
2021/11/26 12:00:49;;;;;;;;;;;;;;;;;;5070221;28;19935;-66
2021/11/26 12:03:17;;;;;;;;;;;;;;;;;;5058975;28;19924;-65
2021/11/26 12:05:44;;;;;;;;;;;;;;;;;;5071041;28;19934;-65
2021/11/26 12:08:16;;;;;;;;;;;;;;;;;;5065786;28;19925;-65
2021/11/26 12:10:48;;;;;;;;;;;;;;;;;;5073712;28;19924;-66
2021/11/26 12:13:22;;;;;;;;;;;;;;;;;;5067242;28;19928;-67
2021/11/26 12:15:51;;;;;;;;;;;;;;;;;;5069891;28;19925;-67
2021/11/26 12:18:21;;;;;;;;;;;;;;;;;;5065322;28;19953;-65
2021/11/26 12:20:51;;;;;;;;;;;;;;;;;;5068878;28;20050;-66
2021/11/26 12:23:24;;;;;;;;;;;;;;;;;;5065317;28;19935;-66
2021/11/26 12:26:07;;;;;;;;;;;;;;;;;;5068670;28;19932;-65
2021/11/26 12:28:36;;;;;;;;;;;;;;;;;;5073228;28;19935;-65
2021/11/26 12:31:04;;;;;;;;;;;;;;;;;;5068053;28;19928;-66
2021/11/26 12:33:34;;;;;;;;;;;;;;;;;;5054431;28;20453;-66
2021/11/26 12:36:11;;;;;;;;;;;;;;;;;;5068649;28;20015;-66
2021/11/26 12:38:43;;;;;;;;;;;;;;;;;;5069976;28;19959;-66
2021/11/26 12:41:14;;;;;;;;;;;;;;;;;;5063596;28;19924;-67
2021/11/26 12:43:44;;;;;;;;;;;;;;;;;;5067620;28;19924;-66
2021/11/26 12:46:13;;;;;;;;;;;;;;;;;;5071059;28;19924;-67
2021/11/26 12:48:55;;;;;;;;;;;;;;;;;;5078625;28;19925;-67
2021/11/26 12:51:25;;;;;;;;;;;;;;;;;;5065879;28;19925;-65
2021/11/26 12:53:55;;;;;;;;;;;;;;;;;;5069369;28;19969;-65
2021/11/26 12:56:24;;;;;;;;;;;;;;;;;;5071377;28;19928;-65
2021/11/26 12:58:51;;;;;;;;;;;;;;;;;;5075821;28;19973;-65
2021/11/26 13:01:23;;;;;;;;;;;;;;;;;;5064874;28;19933;-66
2021/11/26 13:03:56;;;;;;;;;;;;;;;;;;5066265;28;20317;-66
2021/11/26 13:06:24;;;;;;;;;;;;;;;;;;5075198;28;19931;-65
2021/11/26 13:08:54;;;;;;;;;;;;;;;;;;5072997;28;19924;-66
2021/11/26 13:11:38;;;;;;;;;;;;;;;;;;5069112;28;20077;-66
2021/11/26 13:14:09;;;;;;;;;;;;;;;;;;5060120;28;19925;-65
2021/11/26 13:16:41;;;;;;;;;;;;;;;;;;5049974;28;19936;-67
2021/11/26 13:19:18;;;;;;;;;;;;;;;;;;5062078;28;19981;-68
2021/11/26 13:21:47;;;;;;;;;;;;;;;;;;5079082;28;19928;-66
2021/11/26 13:24:17;;;;;;;;;;;;;;;;;;5067987;28;20258;-67
2021/11/26 13:26:48;;;;;;;;;;;;;;;;;;5078809;28;20354;-64
2021/11/26 13:29:18;;;;;;;;;;;;;;;;;;5065929;28;20285;-64
2021/11/26 13:31:48;;;;;;;;;;;;;;;;;;5057011;28;19924;-69
2021/11/26 13:34:19;;;;;;;;;;;;;;;;;;5065975;28;19929;-68
2021/11/26 13:36:47;;;;;;;;;;;;;;;;;;5068046;28;20261;-68
2021/11/26 13:39:18;;;;;;;;;;;;;;;;;;5061300;28;19939;-70
2021/11/26 13:41:51;;;;;;;;;;;;;;;;;;5082361;28;19924;-69
2021/11/26 13:44:21;;;;;;;;;;;;;;;;;;5065865;28;19924;-70
2021/11/26 13:46:53;;;;;;;;;;;;;;;;;;5086796;28;20316;-67
2021/11/26 13:49:25;;;;;;;;;;;;;;;;;;5051014;28;19925;-66
2021/11/26 13:51:54;;;;;;;;;;;;;;;;;;5087612;28;19924;-67
2021/11/26 13:54:43;;;;;;;;;;;;;;;;;;5075938;28;20019;-69
2021/11/26 13:57:15;;;;;;;;;;;;;;;;;;5096479;28;20381;-68
2021/11/26 13:59:45;;;;;;;;;;;;;;;;;;5092200;28;19964;-67
2021/11/26 14:02:14;;;;;;;;;;;;;;;;;;5075726;28;19931;-71
2021/11/26 14:04:49;;;;;;;;;;;;;;;;;;5087278;28;19920;-72
2021/11/26 14:07:16;;;;;;;;;;;;;;;;;;5047357;28;19924;-69
2021/11/26 14:09:44;;;;;;;;;;;;;;;;;;5070574;28;19985;-70
2021/11/26 14:12:13;;;;;;;;;;;;;;;;;;5088140;28;19924;-70
2021/11/26 14:14:44;;;;;;;;;;;;;;;;;;5055441;28;20335;-72
2021/11/26 14:17:14;;;;;;;;;;;;;;;;;;5069292;28;19935;-72
2021/11/26 14:19:44;;;;;;;;;;;;;;;;;;5063796;28;19985;-71
2021/11/26 14:22:16;;;;;;;;;;;;;;;;;;5069452;28;19958;-71
2021/11/26 14:24:44;;;;;;;;;;;;;;;;;;5049997;28;19938;-72
2021/11/26 14:27:15;;;;;;;;;;;;;;;;;;5049857;28;19929;-70
2021/11/26 14:29:46;;;;;;;;;;;;;;;;;;5051328;28;20342;-72
2021/11/26 14:32:15;;;;;;;;;;;;;;;;;;5049595;28;20393;-68
2021/11/26 14:34:45;;;;;;;;;;;;;;;;;;5049827;28;19943;-69
2021/11/26 14:37:21;;;;;;;;;;;;;;;;;;5051018;28;19932;-70
2021/11/26 14:39:56;;;;;;;;;;;;;;;;;;5052282;28;19955;-69
2021/11/26 14:42:24;;;;;;;;;;;;;;;;;;5052909;28;19986;-69
2021/11/26 14:44:56;;;;;;;;;;;;;;;;;;5047875;28;19940;-69
2021/11/26 14:47:27;;;;;;;;;;;;;;;;;;5050062;28;19925;-72
2021/11/26 14:49:59;;;;;;;;;;;;;;;;;;5050905;28;19990;-67
2021/11/26 14:52:53;;;;;;;;;;;;;;;;;;5075196;28;20285;-71
2021/11/26 14:55:26;;;;;;;;;;;;;;;;;;5077938;22;19932;31
2021/11/26 14:58:34;;;;;;;;;;;;;;;;;;5009347;28;19933;-70
2021/11/26 15:01:04;;;;;;;;;;;;;;;;;;5017688;28;19926;-71
2021/11/26 15:03:34;;;;;;;;;;;;;;;;;;5008174;28;19933;-71
2021/11/26 15:06:06;;;;;;;;;;;;;;;;;;5015864;28;19929;-71
2021/11/26 15:08:37;;;;;;;;;;;;;;;;;;4992841;28;19936;-71
2021/11/26 15:11:07;;;;;;;;;;;;;;;;;;5017955;28;19930;-68
2021/11/26 15:13:39;;;;;;;;;;;;;;;;;;5001114;28;19929;-74
2021/11/26 15:16:12;;;;;;;;;;;;;;;;;;5016888;28;19968;-72
2021/11/26 15:18:51;;;;;;;;;;;;;;;;;;5009863;28;19925;-72
2021/11/26 15:21:23;;;;;;;;;;;;;;;;;;5019935;28;19960;-72
2021/11/26 15:23:53;;;;;;;;;;;;;;;;;;5010990;28;20527;-71
2021/11/26 15:26:24;;;;;;;;;;;;;;;;;;5017954;28;20168;-68
2021/11/26 15:29:06;;;;;;;;;;;;;;;;;;5002053;28;19938;-69
2021/11/26 15:31:33;;;;;;;;;;;;;;;;;;5010162;28;20024;-69
2021/11/26 15:34:16;;;;;;;;;;;;;;;;;;5010036;28;20378;-69
2021/11/26 15:36:46;;;;;;;;;;;;;;;;;;5013613;28;19925;-70
2021/11/26 15:39:17;;;;;;;;;;;;;;;;;;4994848;28;19926;-65
2021/11/26 15:41:57;;;;;;;;;;;;;;;;;;5014916;28;20023;-69
2021/11/26 15:44:26;;;;;;;;;;;;;;;;;;5008257;28;19929;-69
2021/11/26 15:46:56;;;;;;;;;;;;;;;;;;5018952;28;19933;-68
2021/11/26 15:49:26;;;;;;;;;;;;;;;;;;5010466;28;20028;-68
2021/11/26 15:51:57;;;;;;;;;;;;;;;;;;5008421;28;20434;-68
2021/11/26 15:54:38;;;;;;;;;;;;;;;;;;5011282;28;20313;-68
2021/11/26 15:57:07;;;;;;;;;;;;;;;;;;5021631;28;19964;-68
2021/11/26 15:59:35;;;;;;;;;;;;;;;;;;5028615;28;19925;-68
2021/11/26 16:02:07;;;;;;;;;;;;;;;;;;5029326;28;19929;-68
2021/11/26 16:04:38;;;;;;;;;;;;;;;;;;5030506;28;19943;-68
2021/11/26 16:07:06;;;;;;;;;;;;;;;;;;5039605;28;20434;-68
2021/11/26 16:09:34;;;;;;;;;;;;;;;;;;5034398;28;20031;-68
2021/11/26 16:12:09;;;;;;;;;;;;;;;;;;5039774;28;20314;-68
2021/11/26 16:14:42;;;;;;;;;;;;;;;;;;5030518;28;19960;-68
2021/11/26 16:17:12;;;;;;;;;;;;;;;;;;5037203;28;20405;-68
2021/11/26 16:19:48;;;;;;;;;;;;;;;;;;5033012;28;19953;-68
2021/11/26 16:22:19;;;;;;;;;;;;;;;;;;5036375;28;19925;-68
2021/11/26 16:24:47;;;;;;;;;;;;;;;;;;5032056;28;19925;-69
2021/11/26 16:27:16;;;;;;;;;;;;;;;;;;5019731;28;19925;-69
2021/11/26 16:29:46;;;;;;;;;;;;;;;;;;5029510;28;19933;-69
2021/11/26 16:34:57;;;;;;;;;;;;;;;;;;5025213;28;19925;-69
2021/11/26 16:37:32;;;;;;;;;;;;;;;;;;5021848;28;19933;-68
2021/11/26 16:40:02;;;;;;;;;;;;;;;;;;5006930;28;19925;-68
2021/11/26 16:42:33;;;;;;;;;;;;;;;;;;5025517;28;19936;-68
2021/11/26 16:45:06;;;;;;;;;;;;;;;;;;5022498;28;19925;-69
2021/11/26 16:47:36;;;;;;;;;;;;;;;;;;5026420;28;20502;-68
2021/11/26 16:50:06;;;;;;;;;;;;;;;;;;5026713;28;19940;-68
2021/11/26 16:52:36;;;;;;;;;;;;;;;;;;5022487;28;19936;-68
2021/11/26 16:55:09;;;;;;;;;;;;;;;;;;5025446;28;19940;-68
2021/11/26 16:57:40;;;;;;;;;;;;;;;;;;5024547;28;19964;-68
2021/11/26 17:00:08;;;;;;;;;;;;;;;;;;5023962;28;20566;-68
2021/11/26 17:02:35;;;;;;;;;;;;;;;;;;5023753;28;19935;-68
2021/11/26 17:05:06;;;;;;;;;;;;;;;;;;5023742;28;20349;-68
2021/11/26 17:07:41;;;;;;;;;;;;;;;;;;5020875;28;20511;-68
2021/11/26 17:10:08;;;;;;;;;;;;;;;;;;5022983;28;19933;-68
2021/11/26 17:12:38;;;;;;;;;;;;;;;;;;5020406;28;19963;-68
2021/11/26 17:15:07;;;;;;;;;;;;;;;;;;5023468;28;20389;-68